sensor_id;sensor_type;location;lat;lon;timestamp;temperature;humidity
17080;DHT22;8655;57.106;-2.088;2024-02-21T00:01:50;16.50;52.60
17080;DHT22;8655;57.106;-2.088;2024-02-21T00:04:16;16.50;52.60
17080;DHT22;8655;57.106;-2.088;2024-02-21T00:06:42;16.50;52.60
17080;DHT22;8655;57.106;-2.088;2024-02-21T00:09:07;16.50;52.60
17080;DHT22;8655;57.106;-2.088;2024-02-21T00:11:35;16.50;52.60
17080;DHT22;8655;57.106;-2.088;2024-02-21T00:14:00;16.50;52.60
17080;DHT22;8655;57.106;-2.088;2024-02-21T00:16:26;16.50;52.60
17080;DHT22;8655;57.106;-2.088;2024-02-21T00:18:52;16.50;52.60
17080;DHT22;8655;57.106;-2.088;2024-02-21T00:21:17;16.50;52.60
17080;DHT22;8655;57.106;-2.088;2024-02-21T00:23:44;16.50;52.60
17080;DHT22;8655;57.106;-2.088;2024-02-21T00:26:14;16.40;52.60
17080;DHT22;8655;57.106;-2.088;2024-02-21T00:28:40;16.40;52.50
17080;DHT22;8655;57.106;-2.088;2024-02-21T00:31:06;16.40;52.50
17080;DHT22;8655;57.106;-2.088;2024-02-21T00:33:32;16.40;52.50
17080;DHT22;8655;57.106;-2.088;2024-02-21T00:35:57;16.40;52.50
17080;DHT22;8655;57.106;-2.088;2024-02-21T00:38:23;16.40;52.50
17080;DHT22;8655;57.106;-2.088;2024-02-21T00:40:49;16.40;52.50
17080;DHT22;8655;57.106;-2.088;2024-02-21T00:43:14;16.40;52.50
17080;DHT22;8655;57.106;-2.088;2024-02-21T00:45:40;16.40;52.50
17080;DHT22;8655;57.106;-2.088;2024-02-21T00:48:06;16.40;52.50
17080;DHT22;8655;57.106;-2.088;2024-02-21T00:50:32;16.40;52.50
17080;DHT22;8655;57.106;-2.088;2024-02-21T00:52:57;16.40;52.50
17080;DHT22;8655;57.106;-2.088;2024-02-21T00:55:23;16.40;53.10
17080;DHT22;8655;57.106;-2.088;2024-02-21T00:57:49;16.40;52.50
17080;DHT22;8655;57.106;-2.088;2024-02-21T01:00:15;16.40;52.50
17080;DHT22;8655;57.106;-2.088;2024-02-21T01:02:41;16.40;52.50
17080;DHT22;8655;57.106;-2.088;2024-02-21T01:05:07;16.40;52.50
17080;DHT22;8655;57.106;-2.088;2024-02-21T01:07:32;16.40;52.50
17080;DHT22;8655;57.106;-2.088;2024-02-21T01:09:58;16.40;52.50
17080;DHT22;8655;57.106;-2.088;2024-02-21T01:12:24;16.30;52.40
17080;DHT22;8655;57.106;-2.088;2024-02-21T01:14:50;16.30;52.40
17080;DHT22;8655;57.106;-2.088;2024-02-21T01:17:16;16.30;52.40
17080;DHT22;8655;57.106;-2.088;2024-02-21T01:19:41;16.30;52.40
17080;DHT22;8655;57.106;-2.088;2024-02-21T01:22:07;16.30;52.40
17080;DHT22;8655;57.106;-2.088;2024-02-21T01:24:33;16.30;52.40
17080;DHT22;8655;57.106;-2.088;2024-02-21T01:26:59;16.30;52.40
17080;DHT22;8655;57.106;-2.088;2024-02-21T01:29:24;16.30;52.40
17080;DHT22;8655;57.106;-2.088;2024-02-21T01:31:50;16.30;52.40
17080;DHT22;8655;57.106;-2.088;2024-02-21T01:34:16;16.30;52.40
17080;DHT22;8655;57.106;-2.088;2024-02-21T01:36:41;16.30;52.40
17080;DHT22;8655;57.106;-2.088;2024-02-21T01:39:07;16.30;52.40
17080;DHT22;8655;57.106;-2.088;2024-02-21T01:41:33;16.30;52.40
17080;DHT22;8655;57.106;-2.088;2024-02-21T01:43:59;16.30;52.40
17080;DHT22;8655;57.106;-2.088;2024-02-21T01:46:25;16.20;52.30
17080;DHT22;8655;57.106;-2.088;2024-02-21T01:48:57;16.30;52.40
17080;DHT22;8655;57.106;-2.088;2024-02-21T01:51:24;16.20;52.30
17080;DHT22;8655;57.106;-2.088;2024-02-21T01:53:51;16.20;52.30
17080;DHT22;8655;57.106;-2.088;2024-02-21T01:56:17;16.20;52.30
17080;DHT22;8655;57.106;-2.088;2024-02-21T01:58:44;16.20;52.30
17080;DHT22;8655;57.106;-2.088;2024-02-21T02:01:10;16.20;52.30
17080;DHT22;8655;57.106;-2.088;2024-02-21T02:03:36;16.20;52.30
17080;DHT22;8655;57.106;-2.088;2024-02-21T02:06:03;16.20;52.30
17080;DHT22;8655;57.106;-2.088;2024-02-21T02:08:31;16.20;52.30
17080;DHT22;8655;57.106;-2.088;2024-02-21T02:10:57;16.20;52.30
17080;DHT22;8655;57.106;-2.088;2024-02-21T02:13:23;16.20;52.30
17080;DHT22;8655;57.106;-2.088;2024-02-21T02:15:49;16.20;52.20
17080;DHT22;8655;57.106;-2.088;2024-02-21T02:18:17;16.20;52.20
17080;DHT22;8655;57.106;-2.088;2024-02-21T02:20:44;16.20;52.20
17080;DHT22;8655;57.106;-2.088;2024-02-21T02:26:06;16.20;52.20
17080;DHT22;8655;57.106;-2.088;2024-02-21T02:28:32;16.20;52.20
17080;DHT22;8655;57.106;-2.088;2024-02-21T02:30:58;16.10;52.20
17080;DHT22;8655;57.106;-2.088;2024-02-21T02:33:24;16.10;52.10
17080;DHT22;8655;57.106;-2.088;2024-02-21T02:35:50;16.10;52.70
17080;DHT22;8655;57.106;-2.088;2024-02-21T02:38:15;16.10;52.20
17080;DHT22;8655;57.106;-2.088;2024-02-21T02:40:42;16.10;52.20
17080;DHT22;8655;57.106;-2.088;2024-02-21T02:43:08;16.10;52.10
17080;DHT22;8655;57.106;-2.088;2024-02-21T02:45:33;16.10;52.10
17080;DHT22;8655;57.106;-2.088;2024-02-21T02:47:59;16.10;52.10
17080;DHT22;8655;57.106;-2.088;2024-02-21T02:50:26;16.10;52.10
17080;DHT22;8655;57.106;-2.088;2024-02-21T02:52:53;16.10;52.10
17080;DHT22;8655;57.106;-2.088;2024-02-21T02:55:19;16.10;52.10
17080;DHT22;8655;57.106;-2.088;2024-02-21T02:57:45;16.10;52.10
17080;DHT22;8655;57.106;-2.088;2024-02-21T03:00:12;16.10;52.10
17080;DHT22;8655;57.106;-2.088;2024-02-21T03:02:39;16.10;52.10
17080;DHT22;8655;57.106;-2.088;2024-02-21T03:05:16;16.00;52.10
17080;DHT22;8655;57.106;-2.088;2024-02-21T03:07:43;16.00;52.00
17080;DHT22;8655;57.106;-2.088;2024-02-21T03:10:09;16.00;52.10
17080;DHT22;8655;57.106;-2.088;2024-02-21T03:12:35;16.00;52.10
17080;DHT22;8655;57.106;-2.088;2024-02-21T03:15:00;16.00;52.00
17080;DHT22;8655;57.106;-2.088;2024-02-21T03:17:26;16.00;52.00
17080;DHT22;8655;57.106;-2.088;2024-02-21T03:19:53;16.00;52.00
17080;DHT22;8655;57.106;-2.088;2024-02-21T03:22:21;16.00;52.10
17080;DHT22;8655;57.106;-2.088;2024-02-21T03:24:46;16.00;52.00
17080;DHT22;8655;57.106;-2.088;2024-02-21T03:27:12;16.00;52.10
17080;DHT22;8655;57.106;-2.088;2024-02-21T03:29:38;16.00;52.60
17080;DHT22;8655;57.106;-2.088;2024-02-21T03:32:03;16.00;52.00
17080;DHT22;8655;57.106;-2.088;2024-02-21T03:34:29;16.00;52.00
17080;DHT22;8655;57.106;-2.088;2024-02-21T03:36:55;16.00;52.00
17080;DHT22;8655;57.106;-2.088;2024-02-21T03:39:20;16.00;52.00
17080;DHT22;8655;57.106;-2.088;2024-02-21T03:41:49;16.00;52.00
17080;DHT22;8655;57.106;-2.088;2024-02-21T03:44:15;16.00;52.00
17080;DHT22;8655;57.106;-2.088;2024-02-21T03:46:41;16.00;52.00
17080;DHT22;8655;57.106;-2.088;2024-02-21T03:49:06;16.00;52.00
17080;DHT22;8655;57.106;-2.088;2024-02-21T03:51:32;16.00;52.00
17080;DHT22;8655;57.106;-2.088;2024-02-21T03:53:58;16.00;52.00
17080;DHT22;8655;57.106;-2.088;2024-02-21T03:56:23;15.90;51.90
17080;DHT22;8655;57.106;-2.088;2024-02-21T03:58:50;15.90;51.90
17080;DHT22;8655;57.106;-2.088;2024-02-21T04:01:16;15.90;51.90
17080;DHT22;8655;57.106;-2.088;2024-02-21T04:03:43;15.90;51.90
17080;DHT22;8655;57.106;-2.088;2024-02-21T04:06:09;15.90;51.80
17080;DHT22;8655;57.106;-2.088;2024-02-21T04:08:35;15.90;51.90
17080;DHT22;8655;57.106;-2.088;2024-02-21T04:11:01;15.90;51.90
17080;DHT22;8655;57.106;-2.088;2024-02-21T04:13:26;15.90;51.90
17080;DHT22;8655;57.106;-2.088;2024-02-21T04:15:52;15.90;51.90
17080;DHT22;8655;57.106;-2.088;2024-02-21T04:18:18;15.90;51.90
17080;DHT22;8655;57.106;-2.088;2024-02-21T04:20:44;15.90;51.90
17080;DHT22;8655;57.106;-2.088;2024-02-21T04:23:09;15.90;51.80
17080;DHT22;8655;57.106;-2.088;2024-02-21T04:25:36;15.90;51.90
17080;DHT22;8655;57.106;-2.088;2024-02-21T04:28:01;15.90;51.80
17080;DHT22;8655;57.106;-2.088;2024-02-21T04:30:28;15.90;51.80
17080;DHT22;8655;57.106;-2.088;2024-02-21T04:32:54;15.90;51.80
17080;DHT22;8655;57.106;-2.088;2024-02-21T04:35:20;15.90;51.80
17080;DHT22;8655;57.106;-2.088;2024-02-21T04:37:46;15.90;51.80
17080;DHT22;8655;57.106;-2.088;2024-02-21T04:40:12;15.90;51.80
17080;DHT22;8655;57.106;-2.088;2024-02-21T04:42:38;15.90;51.80
17080;DHT22;8655;57.106;-2.088;2024-02-21T04:45:04;15.90;51.80
17080;DHT22;8655;57.106;-2.088;2024-02-21T04:47:30;15.90;51.80
17080;DHT22;8655;57.106;-2.088;2024-02-21T04:49:56;15.80;51.70
17080;DHT22;8655;57.106;-2.088;2024-02-21T04:52:22;15.90;51.80
17080;DHT22;8655;57.106;-2.088;2024-02-21T04:54:47;15.90;51.80
17080;DHT22;8655;57.106;-2.088;2024-02-21T04:57:13;15.80;51.80
17080;DHT22;8655;57.106;-2.088;2024-02-21T04:59:44;15.80;51.70
17080;DHT22;8655;57.106;-2.088;2024-02-21T05:02:10;15.80;51.70
17080;DHT22;8655;57.106;-2.088;2024-02-21T05:04:36;15.80;51.70
17080;DHT22;8655;57.106;-2.088;2024-02-21T05:07:04;15.80;51.70
17080;DHT22;8655;57.106;-2.088;2024-02-21T05:09:29;15.80;51.70
17080;DHT22;8655;57.106;-2.088;2024-02-21T05:11:55;15.80;51.70
17080;DHT22;8655;57.106;-2.088;2024-02-21T05:14:21;15.80;51.70
17080;DHT22;8655;57.106;-2.088;2024-02-21T05:16:46;15.80;51.70
17080;DHT22;8655;57.106;-2.088;2024-02-21T05:19:12;15.80;51.70
17080;DHT22;8655;57.106;-2.088;2024-02-21T05:21:38;15.80;51.70
17080;DHT22;8655;57.106;-2.088;2024-02-21T05:24:04;15.80;51.80
17080;DHT22;8655;57.106;-2.088;2024-02-21T05:26:29;15.80;51.70
17080;DHT22;8655;57.106;-2.088;2024-02-21T05:28:55;15.80;51.70
17080;DHT22;8655;57.106;-2.088;2024-02-21T05:31:21;15.80;51.70
17080;DHT22;8655;57.106;-2.088;2024-02-21T05:33:47;15.80;51.70
17080;DHT22;8655;57.106;-2.088;2024-02-21T05:36:13;15.80;51.70
17080;DHT22;8655;57.106;-2.088;2024-02-21T05:38:39;15.80;51.70
17080;DHT22;8655;57.106;-2.088;2024-02-21T05:41:05;15.80;51.70
17080;DHT22;8655;57.106;-2.088;2024-02-21T05:43:31;15.80;51.70
17080;DHT22;8655;57.106;-2.088;2024-02-21T05:45:57;15.80;51.70
17080;DHT22;8655;57.106;-2.088;2024-02-21T05:48:23;15.80;51.70
17080;DHT22;8655;57.106;-2.088;2024-02-21T05:50:49;15.80;51.70
17080;DHT22;8655;57.106;-2.088;2024-02-21T05:53:15;15.80;51.70
17080;DHT22;8655;57.106;-2.088;2024-02-21T05:55:41;15.70;51.60
17080;DHT22;8655;57.106;-2.088;2024-02-21T05:58:07;15.70;51.60
17080;DHT22;8655;57.106;-2.088;2024-02-21T06:00:37;15.70;51.60
17080;DHT22;8655;57.106;-2.088;2024-02-21T06:03:03;15.70;51.60
17080;DHT22;8655;57.106;-2.088;2024-02-21T06:05:28;15.70;51.60
17080;DHT22;8655;57.106;-2.088;2024-02-21T06:07:54;15.70;51.60
17080;DHT22;8655;57.106;-2.088;2024-02-21T06:10:20;15.70;51.60
17080;DHT22;8655;57.106;-2.088;2024-02-21T06:12:46;15.70;51.60
17080;DHT22;8655;57.106;-2.088;2024-02-21T06:15:11;15.70;51.60
17080;DHT22;8655;57.106;-2.088;2024-02-21T06:17:37;15.70;51.60
17080;DHT22;8655;57.106;-2.088;2024-02-21T06:20:03;15.70;51.60
17080;DHT22;8655;57.106;-2.088;2024-02-21T06:22:30;15.70;51.60
17080;DHT22;8655;57.106;-2.088;2024-02-21T06:24:56;15.70;51.60
17080;DHT22;8655;57.106;-2.088;2024-02-21T06:27:21;15.70;51.60
17080;DHT22;8655;57.106;-2.088;2024-02-21T06:29:47;15.70;51.60
17080;DHT22;8655;57.106;-2.088;2024-02-21T06:32:13;15.70;51.60
17080;DHT22;8655;57.106;-2.088;2024-02-21T06:34:38;15.70;51.60
17080;DHT22;8655;57.106;-2.088;2024-02-21T06:37:04;15.70;51.70
17080;DHT22;8655;57.106;-2.088;2024-02-21T06:39:30;15.70;51.70
17080;DHT22;8655;57.106;-2.088;2024-02-21T06:41:56;15.70;51.80
17080;DHT22;8655;57.106;-2.088;2024-02-21T06:44:22;15.80;51.80
17080;DHT22;8655;57.106;-2.088;2024-02-21T06:46:47;15.80;51.90
17080;DHT22;8655;57.106;-2.088;2024-02-21T06:49:13;15.80;52.00
17080;DHT22;8655;57.106;-2.088;2024-02-21T06:51:44;15.90;52.10
17080;DHT22;8655;57.106;-2.088;2024-02-21T06:54:10;15.90;52.10
17080;DHT22;8655;57.106;-2.088;2024-02-21T06:56:37;15.90;52.10
17080;DHT22;8655;57.106;-2.088;2024-02-21T06:59:03;16.00;52.30
17080;DHT22;8655;57.106;-2.088;2024-02-21T07:01:29;16.00;52.30
17080;DHT22;8655;57.106;-2.088;2024-02-21T07:03:55;16.10;52.40
17080;DHT22;8655;57.106;-2.088;2024-02-21T07:06:22;16.10;52.50
17080;DHT22;8655;57.106;-2.088;2024-02-21T07:08:47;16.10;52.50
17080;DHT22;8655;57.106;-2.088;2024-02-21T07:11:13;16.20;52.60
17080;DHT22;8655;57.106;-2.088;2024-02-21T07:13:39;16.20;52.70
17080;DHT22;8655;57.106;-2.088;2024-02-21T07:16:06;16.30;52.80
17080;DHT22;8655;57.106;-2.088;2024-02-21T07:18:31;16.30;52.80
17080;DHT22;8655;57.106;-2.088;2024-02-21T07:20:57;16.40;53.00
17080;DHT22;8655;57.106;-2.088;2024-02-21T07:23:24;16.40;53.00
17080;DHT22;8655;57.106;-2.088;2024-02-21T07:25:49;16.50;53.10
17080;DHT22;8655;57.106;-2.088;2024-02-21T07:28:15;16.50;53.10
17080;DHT22;8655;57.106;-2.088;2024-02-21T07:30:42;16.60;53.30
17080;DHT22;8655;57.106;-2.088;2024-02-21T07:33:08;16.60;53.30
17080;DHT22;8655;57.106;-2.088;2024-02-21T07:35:34;16.70;53.40
17080;DHT22;8655;57.106;-2.088;2024-02-21T07:37:59;16.70;53.40
17080;DHT22;8655;57.106;-2.088;2024-02-21T07:40:25;16.80;53.50
17080;DHT22;8655;57.106;-2.088;2024-02-21T07:42:51;16.90;53.70
17080;DHT22;8655;57.106;-2.088;2024-02-21T07:45:17;16.90;53.70
17080;DHT22;8655;57.106;-2.088;2024-02-21T07:47:43;16.90;53.70
17080;DHT22;8655;57.106;-2.088;2024-02-21T07:50:09;17.00;53.90
17080;DHT22;8655;57.106;-2.088;2024-02-21T07:52:35;17.00;53.80
17080;DHT22;8655;57.106;-2.088;2024-02-21T07:55:01;17.10;54.00
17080;DHT22;8655;57.106;-2.088;2024-02-21T07:57:26;17.10;54.00
17080;DHT22;8655;57.106;-2.088;2024-02-21T07:59:52;17.20;54.00
17080;DHT22;8655;57.106;-2.088;2024-02-21T08:02:18;17.30;54.10
17080;DHT22;8655;57.106;-2.088;2024-02-21T08:04:43;17.30;54.10
17080;DHT22;8655;57.106;-2.088;2024-02-21T08:07:09;17.30;54.20
17080;DHT22;8655;57.106;-2.088;2024-02-21T08:09:35;17.40;54.90
17080;DHT22;8655;57.106;-2.088;2024-02-21T08:12:04;17.40;54.30
17080;DHT22;8655;57.106;-2.088;2024-02-21T08:14:29;17.50;54.30
17080;DHT22;8655;57.106;-2.088;2024-02-21T08:16:55;17.50;54.30
17080;DHT22;8655;57.106;-2.088;2024-02-21T08:19:21;17.60;55.00
17080;DHT22;8655;57.106;-2.088;2024-02-21T08:21:50;17.60;54.40
17080;DHT22;8655;57.106;-2.088;2024-02-21T08:24:15;17.70;54.60
17080;DHT22;8655;57.106;-2.088;2024-02-21T08:26:42;17.70;54.50
17080;DHT22;8655;57.106;-2.088;2024-02-21T08:29:07;17.70;54.50
17080;DHT22;8655;57.106;-2.088;2024-02-21T08:31:33;17.80;54.60
17080;DHT22;8655;57.106;-2.088;2024-02-21T08:34:00;17.80;54.60
17080;DHT22;8655;57.106;-2.088;2024-02-21T08:36:34;17.80;54.60
17080;DHT22;8655;57.106;-2.088;2024-02-21T08:39:00;17.90;54.70
17080;DHT22;8655;57.106;-2.088;2024-02-21T08:41:26;17.90;54.70
17080;DHT22;8655;57.106;-2.088;2024-02-21T08:43:53;18.00;54.70
17080;DHT22;8655;57.106;-2.088;2024-02-21T08:46:22;18.00;54.70
17080;DHT22;8655;57.106;-2.088;2024-02-21T08:48:49;18.00;54.80
17080;DHT22;8655;57.106;-2.088;2024-02-21T08:51:15;18.00;54.70
17080;DHT22;8655;57.106;-2.088;2024-02-21T08:53:41;18.00;54.70
17080;DHT22;8655;57.106;-2.088;2024-02-21T08:56:07;18.10;54.80
17080;DHT22;8655;57.106;-2.088;2024-02-21T08:58:34;18.10;54.80
17080;DHT22;8655;57.106;-2.088;2024-02-21T09:01:00;18.10;54.80
17080;DHT22;8655;57.106;-2.088;2024-02-21T09:03:26;18.10;54.80
17080;DHT22;8655;57.106;-2.088;2024-02-21T09:05:52;18.10;54.70
17080;DHT22;8655;57.106;-2.088;2024-02-21T09:08:18;18.10;54.70
17080;DHT22;8655;57.106;-2.088;2024-02-21T09:10:44;18.10;54.70
17080;DHT22;8655;57.106;-2.088;2024-02-21T09:13:10;18.10;54.70
17080;DHT22;8655;57.106;-2.088;2024-02-21T09:15:35;18.10;54.60
17080;DHT22;8655;57.106;-2.088;2024-02-21T09:18:01;18.10;54.60
17080;DHT22;8655;57.106;-2.088;2024-02-21T09:20:28;18.10;54.60
17080;DHT22;8655;57.106;-2.088;2024-02-21T09:22:55;18.10;54.60
17080;DHT22;8655;57.106;-2.088;2024-02-21T09:25:20;18.10;54.50
17080;DHT22;8655;57.106;-2.088;2024-02-21T09:27:46;18.10;54.50
17080;DHT22;8655;57.106;-2.088;2024-02-21T09:30:12;18.10;54.50
17080;DHT22;8655;57.106;-2.088;2024-02-21T09:32:38;18.10;55.10
17080;DHT22;8655;57.106;-2.088;2024-02-21T09:35:04;18.10;54.50
17080;DHT22;8655;57.106;-2.088;2024-02-21T09:37:33;18.10;54.40
17080;DHT22;8655;57.106;-2.088;2024-02-21T09:39:59;18.10;54.40
17080;DHT22;8655;57.106;-2.088;2024-02-21T09:42:39;18.10;54.40
17080;DHT22;8655;57.106;-2.088;2024-02-21T09:45:20;18.10;54.30
17080;DHT22;8655;57.106;-2.088;2024-02-21T09:50:23;18.00;54.20
17080;DHT22;8655;57.106;-2.088;2024-02-21T09:52:51;18.00;54.70
17080;DHT22;8655;57.106;-2.088;2024-02-21T09:55:18;18.00;54.10
17080;DHT22;8655;57.106;-2.088;2024-02-21T09:57:44;18.00;54.10
17080;DHT22;8655;57.106;-2.088;2024-02-21T10:00:10;18.00;54.10
17080;DHT22;8655;57.106;-2.088;2024-02-21T10:02:36;18.00;54.10
17080;DHT22;8655;57.106;-2.088;2024-02-21T10:05:04;18.00;54.00
17080;DHT22;8655;57.106;-2.088;2024-02-21T10:07:33;17.90;53.90
17080;DHT22;8655;57.106;-2.088;2024-02-21T10:10:05;17.90;53.90
17080;DHT22;8655;57.106;-2.088;2024-02-21T10:12:31;17.90;53.80
17080;DHT22;8655;57.106;-2.088;2024-02-21T10:15:04;17.90;53.80
17080;DHT22;8655;57.106;-2.088;2024-02-21T10:17:30;17.90;53.80
17080;DHT22;8655;57.106;-2.088;2024-02-21T10:20:09;17.90;53.80
17080;DHT22;8655;57.106;-2.088;2024-02-21T10:22:37;17.80;53.60
17080;DHT22;8655;57.106;-2.088;2024-02-21T10:25:11;17.80;53.60
17080;DHT22;8655;57.106;-2.088;2024-02-21T10:27:38;17.80;53.60
17080;DHT22;8655;57.106;-2.088;2024-02-21T10:30:14;17.80;53.60
17080;DHT22;8655;57.106;-2.088;2024-02-21T10:32:56;17.80;53.50
17080;DHT22;8655;57.106;-2.088;2024-02-21T10:35:32;17.80;53.50
17080;DHT22;8655;57.106;-2.088;2024-02-21T10:37:59;17.80;53.50
17080;DHT22;8655;57.106;-2.088;2024-02-21T10:40:29;17.80;53.50
17080;DHT22;8655;57.106;-2.088;2024-02-21T10:43:00;17.70;53.40
17080;DHT22;8655;57.106;-2.088;2024-02-21T10:45:31;17.70;53.40
17080;DHT22;8655;57.106;-2.088;2024-02-21T10:51:00;17.70;53.30
17080;DHT22;8655;57.106;-2.088;2024-02-21T10:53:41;17.70;53.30
17080;DHT22;8655;57.106;-2.088;2024-02-21T10:56:30;17.70;53.30
17080;DHT22;8655;57.106;-2.088;2024-02-21T10:59:01;17.70;53.30
17080;DHT22;8655;57.106;-2.088;2024-02-21T11:01:28;17.60;53.20
17080;DHT22;8655;57.106;-2.088;2024-02-21T11:03:59;17.60;53.20
17080;DHT22;8655;57.106;-2.088;2024-02-21T11:06:27;17.60;53.10
17080;DHT22;8655;57.106;-2.088;2024-02-21T11:11:38;17.60;53.10
17080;DHT22;8655;57.106;-2.088;2024-02-21T11:14:11;17.60;53.10
17080;DHT22;8655;57.106;-2.088;2024-02-21T11:16:43;17.60;53.10
17080;DHT22;8655;57.106;-2.088;2024-02-21T11:19:09;17.50;53.00
17080;DHT22;8655;57.106;-2.088;2024-02-21T11:21:38;17.50;53.00
17080;DHT22;8655;57.106;-2.088;2024-02-21T11:24:04;17.50;53.00
17080;DHT22;8655;57.106;-2.088;2024-02-21T11:26:31;17.50;53.00
17080;DHT22;8655;57.106;-2.088;2024-02-21T11:29:06;17.50;53.00
17080;DHT22;8655;57.106;-2.088;2024-02-21T11:31:43;17.50;52.90
17080;DHT22;8655;57.106;-2.088;2024-02-21T11:34:12;17.50;52.90
17080;DHT22;8655;57.106;-2.088;2024-02-21T11:36:48;17.50;52.90
17080;DHT22;8655;57.106;-2.088;2024-02-21T11:39:23;17.40;52.90
17080;DHT22;8655;57.106;-2.088;2024-02-21T11:42:03;17.40;52.90
17080;DHT22;8655;57.106;-2.088;2024-02-21T11:44:30;17.40;52.90
17080;DHT22;8655;57.106;-2.088;2024-02-21T11:46:56;17.40;52.90
17080;DHT22;8655;57.106;-2.088;2024-02-21T11:49:21;17.40;52.90
17080;DHT22;8655;57.106;-2.088;2024-02-21T11:52:00;17.40;52.90
17080;DHT22;8655;57.106;-2.088;2024-02-21T11:54:32;17.40;52.80
17080;DHT22;8655;57.106;-2.088;2024-02-21T11:56:59;17.40;52.80
17080;DHT22;8655;57.106;-2.088;2024-02-21T11:59:25;17.30;53.40
17080;DHT22;8655;57.106;-2.088;2024-02-21T12:01:52;17.30;52.70
17080;DHT22;8655;57.106;-2.088;2024-02-21T12:04:19;17.30;52.70
17080;DHT22;8655;57.106;-2.088;2024-02-21T12:06:45;17.30;52.70
17080;DHT22;8655;57.106;-2.088;2024-02-21T12:09:15;17.30;52.70
17080;DHT22;8655;57.106;-2.088;2024-02-21T12:11:44;17.30;52.80
17080;DHT22;8655;57.106;-2.088;2024-02-21T12:14:11;17.30;52.70
17080;DHT22;8655;57.106;-2.088;2024-02-21T12:16:41;17.30;52.70
17080;DHT22;8655;57.106;-2.088;2024-02-21T12:19:07;17.30;52.70
17080;DHT22;8655;57.106;-2.088;2024-02-21T12:21:34;17.30;52.70
17080;DHT22;8655;57.106;-2.088;2024-02-21T12:24:22;17.30;52.70
17080;DHT22;8655;57.106;-2.088;2024-02-21T12:26:54;17.20;52.70
17080;DHT22;8655;57.106;-2.088;2024-02-21T12:29:21;17.20;52.70
17080;DHT22;8655;57.106;-2.088;2024-02-21T12:31:48;17.20;52.70
17080;DHT22;8655;57.106;-2.088;2024-02-21T12:34:15;17.20;52.60
17080;DHT22;8655;57.106;-2.088;2024-02-21T12:36:42;17.20;52.70
17080;DHT22;8655;57.106;-2.088;2024-02-21T12:39:12;17.20;52.60
17080;DHT22;8655;57.106;-2.088;2024-02-21T12:41:38;17.20;52.60
17080;DHT22;8655;57.106;-2.088;2024-02-21T12:44:06;17.20;52.60
17080;DHT22;8655;57.106;-2.088;2024-02-21T12:46:35;17.20;52.70
17080;DHT22;8655;57.106;-2.088;2024-02-21T12:49:01;17.20;52.60
17080;DHT22;8655;57.106;-2.088;2024-02-21T12:51:27;17.20;52.60
17080;DHT22;8655;57.106;-2.088;2024-02-21T12:53:53;17.10;52.50
17080;DHT22;8655;57.106;-2.088;2024-02-21T12:56:18;17.10;52.50
17080;DHT22;8655;57.106;-2.088;2024-02-21T12:58:44;17.10;52.50
17080;DHT22;8655;57.106;-2.088;2024-02-21T13:01:10;17.10;52.50
17080;DHT22;8655;57.106;-2.088;2024-02-21T13:03:36;17.10;52.50
17080;DHT22;8655;57.106;-2.088;2024-02-21T13:06:03;17.10;52.50
17080;DHT22;8655;57.106;-2.088;2024-02-21T13:08:29;17.10;52.50
17080;DHT22;8655;57.106;-2.088;2024-02-21T13:10:55;17.10;52.60
17080;DHT22;8655;57.106;-2.088;2024-02-21T13:13:20;17.10;52.50
17080;DHT22;8655;57.106;-2.088;2024-02-21T13:15:46;17.10;52.50
17080;DHT22;8655;57.106;-2.088;2024-02-21T13:18:12;17.10;52.50
17080;DHT22;8655;57.106;-2.088;2024-02-21T13:20:38;17.10;52.50
17080;DHT22;8655;57.106;-2.088;2024-02-21T13:23:03;17.10;52.50
17080;DHT22;8655;57.106;-2.088;2024-02-21T13:25:29;17.00;52.50
17080;DHT22;8655;57.106;-2.088;2024-02-21T13:27:55;17.00;52.50
17080;DHT22;8655;57.106;-2.088;2024-02-21T13:30:22;17.00;52.50
17080;DHT22;8655;57.106;-2.088;2024-02-21T13:32:47;17.00;52.50
17080;DHT22;8655;57.106;-2.088;2024-02-21T13:35:13;17.00;52.50
17080;DHT22;8655;57.106;-2.088;2024-02-21T13:37:40;17.00;52.50
17080;DHT22;8655;57.106;-2.088;2024-02-21T13:40:06;17.00;52.50
17080;DHT22;8655;57.106;-2.088;2024-02-21T13:42:35;17.00;52.50
17080;DHT22;8655;57.106;-2.088;2024-02-21T13:45:00;17.00;52.50
17080;DHT22;8655;57.106;-2.088;2024-02-21T13:47:27;17.00;52.50
17080;DHT22;8655;57.106;-2.088;2024-02-21T13:49:52;17.00;52.50
17080;DHT22;8655;57.106;-2.088;2024-02-21T13:52:18;17.00;52.50
17080;DHT22;8655;57.106;-2.088;2024-02-21T13:54:48;17.00;52.50
17080;DHT22;8655;57.106;-2.088;2024-02-21T13:57:14;17.00;52.50
17080;DHT22;8655;57.106;-2.088;2024-02-21T13:59:40;16.90;52.50
17080;DHT22;8655;57.106;-2.088;2024-02-21T14:02:06;16.90;52.40
17080;DHT22;8655;57.106;-2.088;2024-02-21T14:04:35;16.90;52.50
17080;DHT22;8655;57.106;-2.088;2024-02-21T14:07:00;16.90;52.50
17080;DHT22;8655;57.106;-2.088;2024-02-21T14:09:27;16.90;52.50
17080;DHT22;8655;57.106;-2.088;2024-02-21T14:11:55;16.90;52.50
17080;DHT22;8655;57.106;-2.088;2024-02-21T14:14:20;16.90;52.50
17080;DHT22;8655;57.106;-2.088;2024-02-21T14:16:46;16.90;52.50
17080;DHT22;8655;57.106;-2.088;2024-02-21T14:19:13;16.90;52.50
17080;DHT22;8655;57.106;-2.088;2024-02-21T14:21:39;16.90;52.50
17080;DHT22;8655;57.106;-2.088;2024-02-21T14:24:06;16.90;52.50
17080;DHT22;8655;57.106;-2.088;2024-02-21T14:26:32;16.90;52.50
17080;DHT22;8655;57.106;-2.088;2024-02-21T14:28:58;16.90;52.50
17080;DHT22;8655;57.106;-2.088;2024-02-21T14:31:24;16.90;52.50
17080;DHT22;8655;57.106;-2.088;2024-02-21T14:33:50;16.90;52.50
17080;DHT22;8655;57.106;-2.088;2024-02-21T14:36:16;16.90;52.50
17080;DHT22;8655;57.106;-2.088;2024-02-21T14:38:42;16.90;52.50
17080;DHT22;8655;57.106;-2.088;2024-02-21T14:41:09;16.90;52.50
17080;DHT22;8655;57.106;-2.088;2024-02-21T14:43:37;16.90;53.10
17080;DHT22;8655;57.106;-2.088;2024-02-21T14:46:03;16.90;52.50
17080;DHT22;8655;57.106;-2.088;2024-02-21T14:48:31;16.90;52.50
17080;DHT22;8655;57.106;-2.088;2024-02-21T14:50:57;16.90;52.50
17080;DHT22;8655;57.106;-2.088;2024-02-21T14:53:23;16.80;52.50
17080;DHT22;8655;57.106;-2.088;2024-02-21T14:55:49;16.80;52.50
17080;DHT22;8655;57.106;-2.088;2024-02-21T14:58:16;16.80;52.50
17080;DHT22;8655;57.106;-2.088;2024-02-21T15:00:44;16.80;52.50
17080;DHT22;8655;57.106;-2.088;2024-02-21T15:03:10;16.80;52.50
17080;DHT22;8655;57.106;-2.088;2024-02-21T15:05:41;16.80;52.50
17080;DHT22;8655;57.106;-2.088;2024-02-21T15:08:07;16.80;52.50
17080;DHT22;8655;57.106;-2.088;2024-02-21T15:10:35;16.80;52.50
17080;DHT22;8655;57.106;-2.088;2024-02-21T15:13:01;16.80;52.50
17080;DHT22;8655;57.106;-2.088;2024-02-21T15:15:28;16.80;52.50
17080;DHT22;8655;57.106;-2.088;2024-02-21T15:17:54;16.80;52.50
17080;DHT22;8655;57.106;-2.088;2024-02-21T15:20:19;17.20;52.80
17080;DHT22;8655;57.106;-2.088;2024-02-21T15:22:45;16.80;52.50
17080;DHT22;8655;57.106;-2.088;2024-02-21T15:25:11;16.80;53.10
17080;DHT22;8655;57.106;-2.088;2024-02-21T15:27:41;16.80;52.50
17080;DHT22;8655;57.106;-2.088;2024-02-21T15:30:09;16.80;52.50
17080;DHT22;8655;57.106;-2.088;2024-02-21T15:32:35;16.80;52.50
17080;DHT22;8655;57.106;-2.088;2024-02-21T15:35:03;16.80;52.50
17080;DHT22;8655;57.106;-2.088;2024-02-21T15:37:29;16.80;52.50
17080;DHT22;8655;57.106;-2.088;2024-02-21T15:39:55;16.80;52.50